Startpagina
METAR-TAF:

METAR-TAF

Vliegvelden :

Curaçao International Airport

Curaçao, Nederlandse Antillen

breedte: 12-12N, lengte: 068-58W, hoogte: 9 m

Actueel weer

Dit bericht is 1 uur en het 3 minuten geleden gemaakt, om 08:00 UTC
Wind 6 kt uit het oosten
Temperatuur 26°C
Vochtigheid 79%
Druk 1012 hPa
Zicht 10 km of meer
Weinig wolken op 1800 ft

METAR: TNCC 290800Z 10006KT 9999 FEW018 26/22 Q1012 NOSIG

Tijdstip: 05:03 (09:03 UTC)

Verwachting

Dit bericht is 3 uur en het 48 minuten geleden gemaakt, om 05:15 UTC
Verwachting geldig van 29 om 06 UTC tot 30 om 06 UTC
Wind 8 kt uit het oosten
Zicht 10 km of meer
Verspreide wolken op 1600 ft
Kans 30% :
Tijdelijke
van 29 om 10 UTC tot 29 om 14 UTC
Gebroken wolken op 1400 ft

TAF: TNCC 290515Z 2906/3006 10008KT 9999 SCT016 PROB30 TEMPO 2910/2914 BKN014

Waarnemingen en weersverwachtingen van meer dan 4000 vliegvelden (METAR en TAF).

De beschikbare stations zijn de gele en rode punten op de kaart.

Ga met uw muis naar het station om de naam te zien.

Klik dan om waarnemingen en weersverwachtingen te zien.

kaart wijzigen: klik op de groene knoppen met een zwart kruis om in te zoomen, op de groene knop met een streepje om uit te zoomen of op de groene pijlen voor aangrenzende kaarten.


METAR-TAF: